Time;durP1;ratioP1;P1;durP2;ratioP2;P2;SDS_P1;SDS_P2;PMS_P1;PMS_P2;Temp;Humidity;BMP_temperature;BMP_pressure;BME280_temperature;BME280_humidity;BME280_pressure;Samples;Min_cycle;Max_cycle;Signal;HPM_P1;HPM_P2
2023/03/12 00:00:29;;;;;;;7.55;3.47;;;13.30;99.90;;;;;;5052186;28;20048;-64
2023/03/12 00:02:56;;;;;;;7.47;4.53;;;13.40;99.90;;;;;;5052130;28;20475;-64
2023/03/12 00:05:24;;;;;;;7.57;4.22;;;13.40;99.90;;;;;;5052412;28;20025;-64
2023/03/12 00:07:50;;;;;;;6.80;3.10;;;13.30;99.90;;;;;;5052648;28;20009;-64
2023/03/12 00:10:16;;;;;;;4.57;2.35;;;13.30;99.90;;;;;;5051615;28;20148;-64
2023/03/12 00:12:42;;;;;;;6.43;2.58;;;13.40;99.90;;;;;;5051762;28;20114;-64
2023/03/12 00:15:08;;;;;;;9.90;2.80;;;13.10;99.90;;;;;;5052148;28;20053;-64
2023/03/12 00:17:34;;;;;;;4.85;2.50;;;13.40;99.90;;;;;;5052408;28;20031;-64
2023/03/12 00:20:00;;;;;;;5.25;2.20;;;13.20;99.90;;;;;;5051988;28;20112;-64
2023/03/12 00:22:26;;;;;;;7.32;2.17;;;13.30;99.90;;;;;;5051986;28;20386;-64
2023/03/12 00:24:53;;;;;;;4.30;2.20;;;13.30;99.90;;;;;;5051447;28;20025;-63
2023/03/12 00:27:19;;;;;;;4.05;1.90;;;13.20;99.90;;;;;;5051888;28;20021;-64
2023/03/12 00:29:45;;;;;;;4.80;2.00;;;13.30;99.90;;;;;;5052059;28;20086;-64
2023/03/12 00:32:11;;;;;;;3.80;2.00;;;13.30;99.90;;;;;;5051903;28;20025;-64
2023/03/12 00:34:36;;;;;;;4.13;2.17;;;13.40;99.90;;;;;;5051761;28;20041;-64
2023/03/12 00:37:02;;;;;;;4.18;1.98;;;13.30;99.90;;;;;;5052119;28;20029;-64
2023/03/12 00:39:28;;;;;;;5.90;2.28;;;13.30;99.90;;;;;;5051416;28;20029;-64
2023/03/12 00:41:54;;;;;;;3.72;2.20;;;13.30;99.90;;;;;;5051745;28;20052;-64
2023/03/12 00:44:19;;;;;;;4.00;1.90;;;13.30;99.90;;;;;;5051699;28;20127;-64
2023/03/12 00:46:45;;;;;;;5.15;2.10;;;13.40;99.90;;;;;;5051765;28;20104;-64
2023/03/12 00:49:11;;;;;;;3.90;2.15;;;13.10;99.90;;;;;;5051631;28;20493;-64
2023/03/12 00:51:37;;;;;;;5.25;2.50;;;13.30;99.90;;;;;;5052191;28;20562;-64
2023/03/12 00:54:03;;;;;;;8.38;2.60;;;13.30;99.90;;;;;;5051256;28;20033;-64
2023/03/12 00:56:29;;;;;;;5.90;2.55;;;13.20;99.90;;;;;;5054853;28;20025;-64
2023/03/12 00:58:55;;;;;;;6.45;2.47;;;13.30;99.90;;;;;;5055494;28;20052;-64
2023/03/12 01:01:21;;;;;;;5.85;2.72;;;13.30;99.90;;;;;;5055578;28;20502;-65
2023/03/12 01:03:48;;;;;;;5.07;2.40;;;13.20;99.90;;;;;;5055541;28;20033;-64
2023/03/12 01:06:14;;;;;;;8.07;3.05;;;13.10;99.90;;;;;;5055870;28;20500;-64
2023/03/12 01:08:39;;;;;;;5.35;2.40;;;13.20;99.90;;;;;;5055015;28;20021;-64
2023/03/12 01:11:05;;;;;;;5.35;2.67;;;13.30;99.90;;;;;;5055352;28;20056;-64
2023/03/12 01:13:31;;;;;;;7.38;2.65;;;13.30;99.90;;;;;;5054896;28;20124;-64
2023/03/12 01:15:57;;;;;;;6.78;2.55;;;13.20;99.90;;;;;;5055135;28;20029;-64
2023/03/12 01:18:22;;;;;;;8.27;2.80;;;13.30;99.90;;;;;;5055258;28;20029;-64
2023/03/12 01:20:48;;;;;;;9.30;2.88;;;13.30;99.90;;;;;;5055014;28;20021;-64
2023/03/12 01:23:15;;;;;;;7.72;2.90;;;13.10;99.90;;;;;;5055133;28;20044;-64
2023/03/12 01:25:40;;;;;;;6.82;2.60;;;13.30;99.90;;;;;;5054892;28;20025;-64
2023/03/12 01:28:06;;;;;;;5.40;2.70;;;13.20;99.90;;;;;;5054945;28;20032;-64
2023/03/12 01:30:32;;;;;;;5.50;2.70;;;13.30;99.90;;;;;;5054990;28;20056;-64
2023/03/12 01:32:57;;;;;;;3.22;2.38;;;13.30;99.90;;;;;;5054818;28;20035;-64
2023/03/12 01:35:24;;;;;;;3.85;2.13;;;13.30;99.90;;;;;;5054847;28;20479;-64
2023/03/12 01:37:50;;;;;;;2.70;1.80;;;13.10;99.90;;;;;;5054969;28;20025;-64
2023/03/12 01:40:19;;;;;;;4.53;2.03;;;13.30;99.90;;;;;;5054473;28;20033;-64
2023/03/12 01:42:52;;;;;;;1.73;1.50;;;13.10;99.90;;;;;;5054750;28;20382;-64
2023/03/12 01:45:55;;;;;;;2.42;1.50;;;13.30;99.90;;;;;;5054643;28;20017;-64
2023/03/12 01:48:22;;;;;;;2.35;1.58;;;13.10;99.90;;;;;;5054737;28;20044;-64
2023/03/12 01:50:48;;;;;;;2.47;1.52;;;13.00;99.90;;;;;;5054368;28;20051;-64
2023/03/12 01:53:13;;;;;;;2.38;1.50;;;13.10;99.90;;;;;;5054453;28;20052;-64
2023/03/12 01:55:40;;;;;;;4.47;1.70;;;13.30;99.90;;;;;;5054801;28;20029;-64
2023/03/12 01:58:07;;;;;;;3.80;1.90;;;13.20;99.90;;;;;;5054773;28;20028;-64
2023/03/12 02:00:32;;;;;;;2.17;1.67;;;13.30;99.90;;;;;;5054192;28;20029;-64
2023/03/12 02:03:04;;;;;;;3.15;1.85;;;13.10;99.90;;;;;;5054301;28;20036;-64
2023/03/12 02:05:50;;;;;;;6.00;1.80;;;13.20;99.90;;;;;;5053579;28;20045;-64
2023/03/12 02:08:17;;;;;;;3.35;1.70;;;13.10;99.90;;;;;;5054418;28;20028;-64
2023/03/12 02:10:43;;;;;;;3.08;1.38;;;13.10;99.90;;;;;;5054112;28;20017;-64
2023/03/12 02:13:10;;;;;;;3.38;1.52;;;13.20;99.90;;;;;;5053942;28;20037;-64
2023/03/12 02:15:37;;;;;;;2.47;1.42;;;13.10;99.90;;;;;;5054352;28;20029;-64
2023/03/12 02:18:04;;;;;;;4.60;1.50;;;12.90;99.90;;;;;;5054060;28;20294;-64
2023/03/12 02:20:41;;;;;;;3.30;2.10;;;13.00;99.90;;;;;;5053571;28;20437;-64
2023/03/12 02:23:30;;;;;;;4.63;1.90;;;13.00;99.90;;;;;;5054094;28;20398;-64
2023/03/12 02:25:57;;;;;;;6.63;1.80;;;13.00;99.90;;;;;;5053787;28;20037;-64
2023/03/12 02:28:27;;;;;;;4.43;1.63;;;13.10;99.90;;;;;;5054111;28;20029;-64
2023/03/12 02:30:58;;;;;;;5.60;1.50;;;13.00;99.90;;;;;;5053651;28;20032;-64
2023/03/12 02:33:23;;;;;;;5.22;1.50;;;13.10;99.90;;;;;;5053771;28;20029;-64
2023/03/12 02:35:51;;;;;;;3.15;1.10;;;12.90;99.90;;;;;;5053371;28;20116;-64
2023/03/12 02:38:41;;;;;;;2.40;0.90;;;12.80;99.90;;;;;;5053835;28;20032;-64
2023/03/12 02:41:13;;;;;;;5.13;0.98;;;12.80;99.90;;;;;;5053497;28;20021;-64
2023/03/12 02:43:40;;;;;;;2.17;1.00;;;12.60;99.90;;;;;;5053405;28;20537;-64
2023/03/12 02:46:06;;;;;;;2.60;0.95;;;12.70;99.90;;;;;;5053680;28;20029;-64
2023/03/12 02:48:32;;;;;;;1.92;1.10;;;12.80;99.90;;;;;;5053135;28;20108;-63
2023/03/12 02:50:58;;;;;;;2.33;0.90;;;12.80;99.90;;;;;;5053620;28;20159;-64
2023/03/12 02:53:24;;;;;;;2.35;0.88;;;12.50;99.90;;;;;;5052885;28;20056;-65
2023/03/12 02:55:49;;;;;;;2.80;0.90;;;12.60;99.90;;;;;;5053210;28;20029;-64
2023/03/12 02:58:15;;;;;;;2.42;1.10;;;12.70;99.90;;;;;;5052575;28;20394;-64
2023/03/12 03:00:41;;;;;;;3.88;1.10;;;12.60;99.90;;;;;;5051877;28;20021;-64
2023/03/12 03:03:07;;;;;;;3.35;0.93;;;12.60;99.90;;;;;;5052159;28;20029;-64
2023/03/12 03:05:35;;;;;;;3.65;1.08;;;12.50;99.90;;;;;;5052973;28;20116;-65
2023/03/12 03:08:02;;;;;;;3.83;1.10;;;12.50;99.90;;;;;;5053129;28;20585;-64
2023/03/12 03:10:28;;;;;;;2.92;1.00;;;12.50;99.90;;;;;;5053022;28;20112;-64
2023/03/12 03:12:53;;;;;;;4.25;1.15;;;12.70;99.90;;;;;;5052697;28;20112;-64
2023/03/12 03:15:19;;;;;;;4.65;1.33;;;12.50;99.90;;;;;;5052585;28;20056;-65
2023/03/12 03:17:45;;;;;;;4.07;1.20;;;12.50;99.90;;;;;;5051862;28;20021;-64
2023/03/12 03:20:11;;;;;;;6.95;1.40;;;12.50;99.90;;;;;;5052861;28;20102;-64
2023/03/12 03:22:37;;;;;;;4.22;1.08;;;12.50;99.90;;;;;;5052656;28;20428;-64
2023/03/12 03:25:03;;;;;;;5.25;1.15;;;12.40;99.90;;;;;;5052755;28;20409;-64
2023/03/12 03:27:29;;;;;;;7.47;1.50;;;12.50;99.90;;;;;;5052433;28;20071;-64
2023/03/12 03:29:54;;;;;;;5.25;1.40;;;12.30;99.90;;;;;;5052659;28;20037;-63
2023/03/12 03:32:20;;;;;;;10.73;1.70;;;12.50;99.90;;;;;;5052655;28;20017;-64
2023/03/12 03:34:46;;;;;;;7.43;1.60;;;12.30;99.90;;;;;;5052430;28;20111;-64
2023/03/12 03:37:12;;;;;;;7.32;1.83;;;12.50;99.90;;;;;;5052798;28;20021;-64
2023/03/12 03:39:37;;;;;;;8.40;1.92;;;12.40;99.90;;;;;;5052595;28;20029;-64
2023/03/12 03:42:03;;;;;;;6.03;1.50;;;12.30;99.90;;;;;;5052526;28;20104;-64
2023/03/12 03:44:29;;;;;;;10.50;1.75;;;12.50;99.90;;;;;;5052559;28;20029;-64
2023/03/12 03:46:55;;;;;;;7.40;1.60;;;12.50;99.90;;;;;;5051970;28;20134;-64
2023/03/12 03:49:21;;;;;;;5.40;1.52;;;12.60;99.90;;;;;;5052626;28;20036;-64
2023/03/12 03:51:47;;;;;;;5.85;1.42;;;12.30;99.90;;;;;;5052174;28;20032;-64
2023/03/12 03:54:13;;;;;;;4.10;1.38;;;12.40;99.90;;;;;;5052253;28;20087;-64
2023/03/12 03:56:40;;;;;;;4.80;1.33;;;12.50;99.90;;;;;;5052285;28;20497;-64
2023/03/12 03:59:06;;;;;;;6.10;1.70;;;12.40;99.90;;;;;;5052300;28;20388;-64
2023/03/12 04:01:32;;;;;;;5.95;1.60;;;12.40;99.90;;;;;;5051719;28;20478;-64
2023/03/12 04:03:58;;;;;;;4.93;1.33;;;12.40;99.90;;;;;;5052391;28;20032;-64
2023/03/12 04:06:24;;;;;;;3.95;1.30;;;12.30;99.90;;;;;;5052211;28;20120;-64
2023/03/12 04:08:50;;;;;;;5.63;1.60;;;12.30;99.90;;;;;;5052397;28;20099;-64
2023/03/12 04:11:18;;;;;;;4.25;1.38;;;12.20;99.90;;;;;;5051976;28;20029;-64
2023/03/12 04:13:44;;;;;;;5.00;1.60;;;12.10;99.90;;;;;;5051756;28;20057;-64
2023/03/12 04:16:12;;;;;;;5.70;1.52;;;12.30;99.90;;;;;;5052056;28;20021;-64
2023/03/12 04:18:38;;;;;;;6.03;1.70;;;12.30;99.90;;;;;;5052023;28;20028;-64
2023/03/12 04:21:06;;;;;;;7.68;1.58;;;12.30;99.90;;;;;;5052011;28;20028;-64
2023/03/12 04:23:32;;;;;;;5.70;1.40;;;12.30;99.90;;;;;;5051910;28;20040;-64
2023/03/12 04:25:58;;;;;;;9.32;1.70;;;12.30;99.90;;;;;;5051863;28;20401;-64
2023/03/12 04:28:24;;;;;;;6.80;1.60;;;12.50;99.90;;;;;;5052040;28;20029;-64
2023/03/12 04:30:58;;;;;;;6.72;1.60;;;12.40;99.90;;;;;;5055620;28;20581;-64
2023/03/12 04:33:28;;;;;;;5.28;1.60;;;12.40;99.90;;;;;;5055857;28;20040;-64
2023/03/12 04:35:54;;;;;;;8.20;1.70;;;12.30;99.90;;;;;;5055968;28;20032;-64
2023/03/12 04:38:22;;;;;;;7.95;1.70;;;12.30;99.90;;;;;;5054613;28;20033;-64
2023/03/12 04:41:00;;;;;;;5.30;1.50;;;12.20;99.90;;;;;;5055750;28;20025;-64
2023/03/12 04:43:27;;;;;;;6.32;1.52;;;12.30;99.90;;;;;;5056086;28;20029;-64
2023/03/12 04:45:53;;;;;;;7.78;1.73;;;12.60;99.90;;;;;;5055401;28;20028;-64
2023/03/12 04:48:19;;;;;;;4.10;1.25;;;12.20;99.90;;;;;;5055606;28;20017;-64
2023/03/12 04:50:44;;;;;;;6.32;1.77;;;12.20;99.90;;;;;;5055962;28;20025;-64
2023/03/12 04:53:10;;;;;;;7.88;1.60;;;12.30;99.90;;;;;;5055637;28;20082;-64
2023/03/12 04:55:36;;;;;;;5.95;1.70;;;12.20;99.90;;;;;;5055749;28;20040;-64
2023/03/12 04:58:02;;;;;;;7.65;1.98;;;12.20;99.90;;;;;;5054772;28;20025;-63
2023/03/12 05:00:28;;;;;;;4.93;1.60;;;12.20;99.90;;;;;;5055426;28;20024;-64
2023/03/12 05:02:53;;;;;;;6.95;1.70;;;12.10;99.90;;;;;;5055276;28;20047;-64
2023/03/12 05:05:19;;;;;;;9.30;2.08;;;12.10;99.90;;;;;;5054181;28;20029;-64
2023/03/12 05:07:45;;;;;;;10.80;2.08;;;12.20;99.90;;;;;;5055429;28;20021;-64
2023/03/12 05:10:10;;;;;;;7.68;1.90;;;11.90;99.90;;;;;;5055333;28;20032;-65
2023/03/12 05:12:36;;;;;;;10.32;2.03;;;11.90;99.90;;;;;;5055406;28;20433;-64
2023/03/12 05:15:02;;;;;;;6.95;1.90;;;12.00;99.90;;;;;;5054800;28;20036;-64
2023/03/12 05:17:28;;;;;;;8.07;1.90;;;12.00;99.90;;;;;;5055266;28;20490;-65
2023/03/12 05:19:54;;;;;;;8.27;1.90;;;11.80;99.90;;;;;;5055219;28;20028;-64
2023/03/12 05:22:20;;;;;;;6.82;1.90;;;11.80;99.90;;;;;;5055437;28;20034;-64
2023/03/12 05:24:45;;;;;;;8.18;2.13;;;11.70;99.90;;;;;;5054915;28;20029;-64
2023/03/12 05:27:11;;;;;;;7.97;2.15;;;11.60;99.90;;;;;;5054802;28;20033;-64
2023/03/12 05:29:37;;;;;;;8.52;2.03;;;11.60;99.90;;;;;;5054979;28;20394;-64
2023/03/12 05:32:02;;;;;;;7.28;1.80;;;11.60;99.90;;;;;;5054861;28;20401;-64
2023/03/12 05:34:29;;;;;;;16.60;2.33;;;11.50;99.90;;;;;;5054891;28;20576;-64
2023/03/12 05:36:58;;;;;;;10.65;2.47;;;11.60;99.90;;;;;;5054812;28;20026;-64
2023/03/12 05:39:25;;;;;;;9.32;2.05;;;11.40;99.90;;;;;;5054593;28;20052;-65
2023/03/12 05:41:56;;;;;;;9.25;2.42;;;11.30;99.90;;;;;;5054009;28;20025;-64
2023/03/12 05:44:23;;;;;;;13.88;9.02;;;11.20;99.90;;;;;;5054760;28;20418;-64
2023/03/12 05:46:49;;;;;;;21.48;11.40;;;11.20;99.90;;;;;;5054677;28;20045;-65
2023/03/12 05:49:15;;;;;;;20.33;10.30;;;11.20;99.90;;;;;;5054643;28;20385;-64
2023/03/12 05:51:42;;;;;;;15.48;10.00;;;11.40;99.90;;;;;;5054434;28;20036;-65
2023/03/12 05:54:08;;;;;;;11.82;7.70;;;11.30;99.90;;;;;;5054335;28;20037;-65
2023/03/12 05:56:36;;;;;;;17.38;9.55;;;11.40;99.90;;;;;;5054355;28;20029;-64
2023/03/12 05:59:02;;;;;;;23.58;15.55;;;11.20;99.90;;;;;;5053982;28;20040;-64
2023/03/12 06:01:29;;;;;;;25.20;11.27;;;11.30;99.90;;;;;;5054351;28;20078;-64
2023/03/12 06:03:55;;;;;;;18.55;9.63;;;11.40;99.90;;;;;;5054155;28;20510;-64
2023/03/12 06:06:22;;;;;;;23.10;8.45;;;11.30;99.90;;;;;;5054584;28;20066;-64
2023/03/12 06:08:48;;;;;;;25.58;9.48;;;11.40;99.90;;;;;;5054026;28;20086;-64
2023/03/12 06:11:14;;;;;;;18.42;9.23;;;11.40;99.90;;;;;;5053839;28;20021;-65
2023/03/12 06:13:40;;;;;;;19.23;6.60;;;11.50;99.90;;;;;;5053733;28;20067;-64
2023/03/12 06:16:10;;;;;;;19.85;5.65;;;11.50;99.90;;;;;;5054061;28;20021;-64
2023/03/12 06:18:37;;;;;;;16.15;5.05;;;11.50;99.90;;;;;;5053819;28;20119;-65
2023/03/12 06:21:17;;;;;;;20.58;7.65;;;11.50;99.90;;;;;;5054008;28;20474;-63
2023/03/12 06:23:43;;;;;;;37.35;28.25;;;11.50;99.90;;;;;;5053953;28;20082;-65
2023/03/12 06:26:10;;;;;;;21.17;8.23;;;11.70;99.90;;;;;;5053596;28;20024;-64
2023/03/12 06:28:35;;;;;;;34.22;13.90;;;11.40;99.90;;;;;;5053181;28;20127;-64
2023/03/12 06:31:01;;;;;;;39.03;21.40;;;11.60;99.90;;;;;;5053530;28;20104;-65
2023/03/12 06:33:28;;;;;;;33.10;15.23;;;11.60;99.90;;;;;;5053101;28;20029;-63
2023/03/12 06:35:58;;;;;;;28.45;12.50;;;11.60;99.90;;;;;;5053281;28;20021;-62
2023/03/12 06:38:24;;;;;;;33.38;17.23;;;11.70;99.90;;;;;;5053228;28;20055;-64
2023/03/12 06:41:05;;;;;;;26.60;14.10;;;11.60;99.90;;;;;;5053153;28;20099;-64
2023/03/12 06:43:32;;;;;;;20.35;9.68;;;11.70;99.90;;;;;;5050539;28;20021;-62
2023/03/12 06:45:59;;;;;;;18.27;6.85;;;11.80;99.90;;;;;;5053055;28;20017;-63
2023/03/12 06:48:26;;;;;;;15.65;5.57;;;11.70;99.90;;;;;;5053464;28;20055;-64
2023/03/12 06:50:52;;;;;;;17.90;5.32;;;11.80;99.90;;;;;;5053264;28;20025;-65
2023/03/12 06:53:19;;;;;;;20.02;4.60;;;11.80;99.90;;;;;;5051542;28;20036;-64
2023/03/12 06:55:45;;;;;;;19.83;4.72;;;11.70;99.90;;;;;;5052574;28;20505;-65
2023/03/12 06:58:11;;;;;;;25.85;11.13;;;11.80;99.90;;;;;;5053302;28;20490;-65
2023/03/12 07:00:37;;;;;;;24.90;11.75;;;11.80;99.90;;;;;;5053318;28;20021;-66
2023/03/12 07:03:03;;;;;;;17.63;5.55;;;11.80;99.90;;;;;;5053300;28;20082;-64
2023/03/12 07:05:30;;;;;;;14.18;4.97;;;11.90;99.90;;;;;;5053103;28;20029;-65
2023/03/12 07:07:56;;;;;;;16.02;4.93;;;12.00;99.90;;;;;;5053551;28;20034;-65
2023/03/12 07:10:22;;;;;;;14.73;4.90;;;12.10;99.90;;;;;;5052714;28;20439;-65
2023/03/12 07:12:48;;;;;;;19.52;4.78;;;12.30;99.90;;;;;;5053184;28;20059;-65
2023/03/12 07:15:14;;;;;;;13.38;4.32;;;12.30;99.90;;;;;;5053281;28;20382;-64
2023/03/12 07:17:40;;;;;;;18.52;4.80;;;12.40;99.90;;;;;;5053054;28;20025;-64
2023/03/12 07:20:06;;;;;;;21.63;5.35;;;12.50;99.90;;;;;;5052911;28;20021;-65
2023/03/12 07:22:32;;;;;;;17.60;5.28;;;12.60;99.90;;;;;;5053385;28;20496;-65
2023/03/12 07:24:58;;;;;;;20.98;5.63;;;13.00;99.90;;;;;;5052516;28;20036;-64
2023/03/12 07:27:23;;;;;;;16.75;5.80;;;13.00;99.90;;;;;;5052779;28;20029;-65
2023/03/12 07:29:49;;;;;;;23.10;6.05;;;13.30;99.90;;;;;;5053196;28;20047;-64
2023/03/12 07:32:15;;;;;;;14.70;5.07;;;13.40;99.90;;;;;;5053101;28;20048;-65
2023/03/12 07:34:41;;;;;;;18.13;5.18;;;13.40;99.90;;;;;;5052291;28;20073;-65
2023/03/12 07:37:07;;;;;;;19.17;5.40;;;13.60;99.90;;;;;;5052726;28;20029;-65
2023/03/12 07:39:32;;;;;;;21.33;5.50;;;13.70;99.90;;;;;;5052497;28;20025;-65
2023/03/12 07:41:58;;;;;;;18.98;5.78;;;13.50;99.90;;;;;;5052596;28;20021;-64
2023/03/12 07:44:25;;;;;;;17.13;4.80;;;13.70;99.90;;;;;;5052408;28;20025;-64
2023/03/12 07:46:51;;;;;;;17.45;5.20;;;13.80;99.90;;;;;;5052530;28;20019;-64
2023/03/12 07:49:18;;;;;;;13.63;5.20;;;14.00;99.90;;;;;;5052320;28;20025;-64
2023/03/12 07:51:44;;;;;;;16.10;5.18;;;14.10;99.90;;;;;;5052886;28;20021;-65
2023/03/12 07:54:10;;;;;;;16.77;4.70;;;14.10;99.90;;;;;;5052501;28;20041;-65
2023/03/12 07:56:36;;;;;;;17.33;5.10;;;14.70;99.90;;;;;;5052889;28;20478;-65
2023/03/12 07:59:01;;;;;;;13.50;4.50;;;15.20;99.90;;;;;;5051487;28;20029;-65
2023/03/12 08:01:30;;;;;;;14.38;4.53;;;15.50;99.90;;;;;;5050999;28;20134;-65
2023/03/12 08:04:00;;;;;;;10.30;4.00;;;15.70;99.90;;;;;;5051767;28;20493;-64
2023/03/12 08:06:26;;;;;;;13.45;4.40;;;18.00;99.90;;;;;;5052065;28;20013;-65
2023/03/12 08:08:52;;;;;;;12.95;3.85;;;22.70;99.90;;;;;;5052128;28;20113;-65
2023/03/12 08:11:18;;;;;;;13.93;4.18;;;23.60;99.90;;;;;;5052033;28;20056;-65
2023/03/12 08:13:43;;;;;;;12.88;4.05;;;25.50;99.90;;;;;;5051692;28;20057;-66
2023/03/12 08:16:11;;;;;;;12.30;5.25;;;22.80;99.90;;;;;;5051819;28;20048;-66
2023/03/12 08:18:37;;;;;;;12.82;4.10;;;22.60;99.90;;;;;;5051892;28;20066;-66
2023/03/12 08:21:03;;;;;;;13.52;4.43;;;22.30;99.90;;;;;;5052301;28;20029;-65
2023/03/12 08:23:28;;;;;;;15.95;4.75;;;21.80;99.90;;;;;;5051521;28;20021;-66
2023/03/12 08:25:55;;;;;;;11.13;4.35;;;21.10;99.90;;;;;;5051823;28;20091;-66
2023/03/12 08:28:23;;;;;;;15.30;4.95;;;23.40;99.90;;;;;;5051741;28;20032;-66
2023/03/12 08:30:51;;;;;;;10.88;4.07;;;23.70;99.90;;;;;;5051787;28;20040;-66
2023/03/12 08:33:17;;;;;;;12.13;4.93;;;22.40;99.90;;;;;;5052112;28;20108;-67
2023/03/12 08:35:44;;;;;;;15.52;4.80;;;21.10;99.90;;;;;;5052011;28;20175;-66
2023/03/12 08:38:10;;;;;;;14.77;4.72;;;20.60;99.90;;;;;;5051511;28;20055;-66
2023/03/12 08:40:36;;;;;;;13.85;4.65;;;19.20;99.90;;;;;;5051928;28;20068;-66
2023/03/12 08:43:02;;;;;;;13.30;4.55;;;19.00;99.90;;;;;;5051157;28;20075;-66
2023/03/12 08:45:29;;;;;;;14.80;4.65;;;18.30;99.90;;;;;;5051741;28;20033;-66
2023/03/12 08:47:55;;;;;;;18.88;4.85;;;17.90;99.90;;;;;;5051970;28;20021;-65
2023/03/12 08:50:21;;;;;;;16.02;4.65;;;17.30;99.90;;;;;;5052522;28;20036;-65
2023/03/12 08:52:47;;;;;;;14.30;4.47;;;17.30;99.90;;;;;;5051541;28;20025;-66
2023/03/12 08:55:13;;;;;;;15.45;4.18;;;17.10;99.90;;;;;;5051843;28;20040;-65
2023/03/12 08:57:39;;;;;;;11.75;3.92;;;17.40;99.90;;;;;;5051856;28;20021;-66
2023/03/12 09:00:10;;;;;;;12.57;4.18;;;17.10;99.90;;;;;;5051662;28;20033;-65
2023/03/12 09:02:36;;;;;;;12.07;4.15;;;17.50;99.90;;;;;;5051649;28;20546;-65
2023/03/12 09:05:03;;;;;;;15.70;4.30;;;17.90;99.90;;;;;;5051393;28;20027;-66
2023/03/12 09:07:30;;;;;;;15.10;4.10;;;17.30;99.90;;;;;;5051634;28;20017;-65
2023/03/12 09:09:56;;;;;;;13.07;3.95;;;17.40;99.90;;;;;;5051507;28;20443;-65
2023/03/12 09:12:22;;;;;;;12.02;3.97;;;17.20;99.90;;;;;;5051262;28;20068;-66
2023/03/12 09:14:49;;;;;;;12.52;3.70;;;17.50;99.90;;;;;;5051412;28;20123;-65
2023/03/12 09:17:15;;;;;;;14.13;3.92;;;17.90;99.90;;;;;;5054233;28;20021;-65
2023/03/12 09:19:40;;;;;;;12.40;3.75;;;17.30;99.90;;;;;;5054986;28;20116;-64
2023/03/12 09:22:06;;;;;;;11.80;4.00;;;17.10;99.90;;;;;;5055092;28;20035;-65
2023/03/12 09:24:32;;;;;;;13.63;3.50;;;17.20;99.90;;;;;;5055028;28;20125;-65
2023/03/12 09:26:58;;;;;;;13.63;3.90;;;16.60;99.90;;;;;;5055604;28;20423;-65
2023/03/12 09:29:23;;;;;;;11.20;3.75;;;16.30;99.90;;;;;;5054829;28;20033;-65
2023/03/12 09:31:50;;;;;;;11.60;3.50;;;16.40;99.90;;;;;;5054914;28;20025;-65
2023/03/12 09:34:16;;;;;;;10.65;3.58;;;16.20;99.90;;;;;;5054471;28;20452;-65
2023/03/12 09:36:42;;;;;;;11.07;3.40;;;16.60;99.90;;;;;;5054712;28;20028;-65
2023/03/12 09:39:08;;;;;;;14.73;3.90;;;16.50;99.90;;;;;;5054747;28;20386;-65
2023/03/12 09:41:40;;;;;;;12.85;3.33;;;16.40;99.90;;;;;;5053454;28;20093;-65
2023/03/12 09:44:38;;;;;;;11.75;3.42;;;16.50;99.90;;;;;;5054313;28;20125;-65
2023/03/12 09:47:13;;;;;;;11.75;2.72;;;16.30;99.90;;;;;;5055077;28;20120;-65
2023/03/12 09:49:44;;;;;;;10.32;2.83;;;16.00;99.90;;;;;;5054385;28;20032;-65
2023/03/12 09:52:18;;;;;;;11.65;3.17;;;16.30;99.90;;;;;;5054386;28;20092;-64
2023/03/12 09:54:53;;;;;;;13.70;3.50;;;16.10;99.90;;;;;;5054459;28;20064;-65
2023/03/12 09:57:25;;;;;;;11.65;3.10;;;16.20;99.90;;;;;;5054336;28;20021;-65
2023/03/12 09:59:52;;;;;;;9.80;3.53;;;16.20;99.90;;;;;;5054667;28;20021;-65
2023/03/12 10:02:39;;;;;;;13.15;3.50;;;16.40;99.90;;;;;;5054886;28;20021;-65
2023/03/12 10:05:10;;;;;;;11.60;2.90;;;16.10;99.90;;;;;;5053719;28;20036;-65
2023/03/12 10:08:01;;;;;;;15.27;3.17;;;16.10;99.90;;;;;;5054784;28;20021;-65
2023/03/12 10:10:30;;;;;;;9.48;2.80;;;16.10;99.90;;;;;;5054265;28;20072;-65
2023/03/12 10:13:23;;;;;;;9.45;3.08;;;16.30;99.90;;;;;;5054343;28;20049;-65
2023/03/12 10:16:10;;;;;;;11.70;2.90;;;16.50;99.90;;;;;;5054150;28;20033;-65
2023/03/12 10:19:00;;;;;;;7.18;2.72;;;16.80;99.90;;;;;;5053906;28;20017;-65
2023/03/12 10:21:41;;;;;;;9.90;2.65;;;17.20;99.90;;;;;;5053988;28;20112;-65
2023/03/12 10:24:07;;;;;;;10.57;2.88;;;17.60;99.90;;;;;;5054016;28;20031;-65
2023/03/12 10:26:39;;;;;;;9.35;2.70;;;18.20;99.90;;;;;;5053491;28;20021;-67
2023/03/12 10:29:23;;;;;;;10.75;3.30;;;19.00;99.90;;;;;;5053598;28;20036;-65
2023/03/12 10:32:01;;;;;;;10.02;3.95;;;19.50;99.90;;;;;;5053391;28;20020;-66
2023/03/12 10:34:57;;;;;;;7.05;2.75;;;19.10;99.90;;;;;;5053041;28;20041;-66
2023/03/12 10:37:40;;;;;;;8.05;3.00;;;18.60;99.90;;;;;;5052997;28;20363;-66
2023/03/12 10:40:11;;;;;;;8.80;3.47;;;17.90;99.90;;;;;;5051952;28;20029;-64
2023/03/12 10:42:38;;;;;;;9.15;2.60;;;17.50;99.90;;;;;;5053665;28;20276;-64
2023/03/12 10:45:09;;;;;;;7.15;2.20;;;17.10;99.90;;;;;;5052617;28;20060;-65
2023/03/12 10:47:37;;;;;;;7.47;2.92;;;17.10;99.90;;;;;;5052549;28;20032;-66
2023/03/12 10:50:15;;;;;;;9.43;2.90;;;16.90;99.90;;;;;;5053130;28;20481;-66
2023/03/12 10:52:41;;;;;;;10.50;3.72;;;17.10;99.90;;;;;;5052842;28;20032;-66
2023/03/12 10:55:25;;;;;;;6.65;2.75;;;17.00;99.90;;;;;;5052981;28;20032;-66
2023/03/12 10:57:52;;;;;;;8.10;3.20;;;17.20;99.90;;;;;;5052800;28;20035;-66
2023/03/12 11:00:26;;;;;;;6.75;2.63;;;17.10;99.90;;;;;;5053308;28;20409;-66
2023/03/12 11:02:57;;;;;;;6.70;2.40;;;17.10;99.90;;;;;;5052911;28;20032;-66
2023/03/12 11:05:30;;;;;;;6.93;3.05;;;16.90;99.90;;;;;;5052832;28;20039;-66
2023/03/12 11:07:59;;;;;;;10.45;3.15;;;17.10;99.90;;;;;;5052769;28;20127;-66
2023/03/12 11:10:43;;;;;;;6.97;1.98;;;17.00;99.90;;;;;;5053068;28;20040;-66
2023/03/12 11:13:40;;;;;;;4.55;2.00;;;16.90;99.90;;;;;;5052493;28;20132;-64
2023/03/12 11:16:17;;;;;;;5.80;2.33;;;17.10;99.90;;;;;;5047911;28;20128;-66
2023/03/12 11:19:00;;;;;;;5.63;1.88;;;16.90;99.90;;;;;;5052362;28;20067;-66
2023/03/12 11:21:28;;;;;;;6.50;1.80;;;16.80;99.90;;;;;;5052913;28;20404;-65
2023/03/12 11:23:56;;;;;;;3.72;1.60;;;17.00;99.90;;;;;;5052278;28;20397;-65
2023/03/12 11:26:32;;;;;;;4.18;1.60;;;16.40;99.90;;;;;;5052862;28;20116;-66
2023/03/12 11:29:01;;;;;;;5.57;1.90;;;16.60;99.90;;;;;;5052546;28;20021;-66
2023/03/12 11:31:59;;;;;;;3.70;1.60;;;16.60;99.90;;;;;;5052135;28;20074;-65
2023/03/12 11:34:30;;;;;;;4.78;1.63;;;16.70;99.90;;;;;;5047497;28;20080;-65
2023/03/12 11:37:20;;;;;;;4.32;1.90;;;16.90;99.90;;;;;;5051311;28;20800;-65
2023/03/12 11:40:15;;;;;;;3.15;1.63;;;17.20;99.90;;;;;;5051931;28;20025;-65
2023/03/12 11:42:52;;;;;;;3.78;1.75;;;17.60;99.90;;;;;;5052663;28;20021;-65
2023/03/12 11:45:42;;;;;;;4.00;1.50;;;17.90;99.90;;;;;;5050931;28;20565;-65
2023/03/12 11:48:27;;;;;;;5.32;2.10;;;17.40;99.90;;;;;;5051931;28;20021;-65
2023/03/12 11:50:59;;;;;;;4.00;1.80;;;17.00;99.90;;;;;;5052341;28;20094;-65
2023/03/12 11:53:48;;;;;;;5.03;1.85;;;16.80;99.90;;;;;;5052131;28;20034;-66
2023/03/12 11:56:19;;;;;;;5.15;1.52;;;16.50;99.90;;;;;;5048957;28;20124;-65
2023/03/12 11:59:11;;;;;;;5.18;1.70;;;16.30;99.90;;;;;;5052223;28;20025;-65
2023/03/12 12:01:49;;;;;;;5.93;2.00;;;16.20;99.90;;;;;;5052453;28;20032;-65
2023/03/12 12:04:26;;;;;;;4.60;1.60;;;16.20;99.90;;;;;;5052208;28;20505;-64
2023/03/12 12:07:16;;;;;;;3.70;1.55;;;16.10;99.90;;;;;;5051963;28;20036;-62
2023/03/12 12:10:10;;;;;;;5.00;1.73;;;16.30;99.90;;;;;;5052086;28;20082;-64
2023/03/12 12:12:48;;;;;;;6.05;2.00;;;16.50;99.90;;;;;;5029099;28;20053;-64
2023/03/12 12:15:33;;;;;;;6.90;2.00;;;16.50;99.90;;;;;;5029570;28;20061;-64
2023/03/12 12:18:03;;;;;;;5.18;1.92;;;16.70;99.90;;;;;;5030091;28;20022;-64
2023/03/12 12:20:53;;;;;;;8.15;1.83;;;16.90;99.90;;;;;;5030160;28;20368;-64
2023/03/12 12:24:17;;;;;;;3.10;1.42;;;16.40;99.90;;;;;;5029666;28;20044;-63
2023/03/12 12:27:12;;;;;;;6.00;1.90;;;16.60;99.90;;;;;;4951691;28;20070;-64
2023/03/12 12:29:43;;;;;;;3.75;1.63;;;16.80;99.90;;;;;;4951069;29;20054;-64
2023/03/12 12:32:21;;;;;;;4.35;1.40;;;16.40;99.90;;;;;;4951281;29;20381;-65
2023/03/12 12:35:06;;;;;;;4.90;1.85;;;16.40;99.90;;;;;;4951931;28;20039;-65
2023/03/12 12:37:38;;;;;;;3.42;1.42;;;16.30;99.90;;;;;;4951053;29;20511;-63
2023/03/12 12:40:12;;;;;;;3.65;1.38;;;16.10;99.90;;;;;;4951365;29;20111;-65
2023/03/12 12:42:53;;;;;;;3.22;1.60;;;16.10;99.90;;;;;;4951279;29;20067;-65
2023/03/12 12:45:21;;;;;;;2.70;1.30;;;15.90;99.90;;;;;;4951803;29;20081;-66
2023/03/12 12:47:53;;;;;;;3.40;1.13;;;16.10;99.90;;;;;;4951427;29;20027;-66
2023/03/12 12:50:23;;;;;;;2.13;1.17;;;16.20;99.90;;;;;;4933226;29;20087;-64
2023/03/12 12:53:20;;;;;;;2.90;1.05;;;16.40;99.90;;;;;;4936101;29;20038;-66
2023/03/12 12:55:49;;;;;;;3.45;1.30;;;16.10;99.90;;;;;;4934313;29;20046;-66